Time;durP1;ratioP1;P1;durP2;ratioP2;P2;SDS_P1;SDS_P2;PMS_P1;PMS_P2;Temp;Humidity;BMP_temperature;BMP_pressure;BME280_temperature;BME280_humidity;BME280_pressure;Samples;Min_cycle;Max_cycle;Signal;HPM_P1;HPM_P2
2022/12/09 00:02:15;;;;;;;25.10;12.80;;;8.30;55.90;;;;;;4894435;29;20470;-86
2022/12/09 00:04:42;;;;;;;30.03;13.30;;;8.30;55.90;;;;;;4917229;28;20450;-85
2022/12/09 00:07:09;;;;;;;16.87;10.83;;;8.20;56.10;;;;;;4921954;29;20477;-86
2022/12/09 00:09:37;;;;;;;22.40;10.53;;;8.20;56.10;;;;;;4951110;28;20913;-86
2022/12/09 00:12:04;;;;;;;27.00;13.63;;;8.20;56.10;;;;;;4934341;29;20488;-85
2022/12/09 00:14:31;;;;;;;18.57;11.13;;;8.30;56.20;;;;;;4909399;29;20458;-86
2022/12/09 00:16:58;;;;;;;21.63;12.60;;;8.20;56.10;;;;;;4920048;29;20451;-86
2022/12/09 00:19:26;;;;;;;19.47;12.30;;;8.20;55.90;;;;;;4936427;29;20466;-85
2022/12/09 00:21:53;;;;;;;22.43;11.90;;;8.10;56.00;;;;;;4930561;28;20837;-86
2022/12/09 00:24:20;;;;;;;27.37;12.20;;;8.20;56.10;;;;;;4935436;28;20486;-86
2022/12/09 00:26:47;;;;;;;26.20;13.00;;;8.20;56.20;;;;;;4920581;29;20867;-86
2022/12/09 00:29:14;;;;;;;22.77;14.33;;;8.20;55.90;;;;;;4918176;28;20800;-86
2022/12/09 00:31:41;;;;;;;34.67;15.00;;;8.20;55.90;;;;;;4905440;29;20468;-86
2022/12/09 00:34:12;;;;;;;27.17;13.90;;;8.20;55.90;;;;;;4903290;29;20477;-85
2022/12/09 00:36:40;;;;;;;22.50;12.50;;;8.30;56.10;;;;;;4918554;29;21007;-86
2022/12/09 00:39:07;;;;;;;23.73;12.73;;;8.30;56.30;;;;;;4927116;29;20457;-86
2022/12/09 00:41:34;;;;;;;28.37;12.90;;;8.30;56.30;;;;;;4924900;29;20463;-86
2022/12/09 00:44:01;;;;;;;25.73;11.40;;;8.20;56.20;;;;;;4893049;29;20475;-85
2022/12/09 00:46:28;;;;;;;20.50;11.47;;;8.10;56.50;;;;;;4934306;29;20462;-86
2022/12/09 00:48:56;;;;;;;14.80;9.73;;;8.00;56.60;;;;;;4932766;28;20469;-86
2022/12/09 00:51:24;;;;;;;20.40;11.00;;;8.10;56.70;;;;;;4910224;29;20446;-85
2022/12/09 00:53:54;;;;;;;19.83;11.10;;;8.20;56.40;;;;;;4917945;29;20482;-85
2022/12/09 00:56:21;;;;;;;15.60;9.23;;;8.20;56.30;;;;;;4894484;29;20451;-83
2022/12/09 00:58:48;;;;;;;20.43;11.90;;;8.10;56.20;;;;;;4935473;28;20498;-87
2022/12/09 01:01:15;;;;;;;22.60;11.70;;;8.10;56.10;;;;;;4934720;29;20983;-86
2022/12/09 01:03:42;;;;;;;19.77;12.13;;;8.10;56.00;;;;;;4893923;29;20764;-85
2022/12/09 01:06:11;;;;;;;20.30;13.07;;;8.10;56.00;;;;;;4925303;29;20469;-85
2022/12/09 01:08:38;;;;;;;20.97;12.73;;;8.00;56.20;;;;;;4919369;29;20451;-86
2022/12/09 01:11:11;;;;;;;20.50;10.57;;;8.00;56.50;;;;;;4946202;28;20952;-86
2022/12/09 01:13:39;;;;;;;19.00;10.77;;;8.10;56.60;;;;;;4934398;29;20490;-86
2022/12/09 01:16:14;;;;;;;16.53;10.30;;;8.10;56.60;;;;;;4917970;29;20510;-86
2022/12/09 01:18:41;;;;;;;20.97;10.80;;;8.00;56.40;;;;;;4917420;29;20473;-86
2022/12/09 01:21:08;;;;;;;14.97;10.50;;;7.90;56.70;;;;;;4903095;29;20815;-86
2022/12/09 01:23:34;;;;;;;20.30;10.57;;;8.00;56.90;;;;;;4918801;29;20885;-85
2022/12/09 01:26:04;;;;;;;20.47;10.57;;;8.10;56.60;;;;;;4907178;29;20483;-86
2022/12/09 01:28:34;;;;;;;19.47;10.13;;;8.00;56.50;;;;;;4903184;29;21174;-86
2022/12/09 01:31:05;;;;;;;17.73;9.47;;;7.90;56.60;;;;;;4917398;29;20977;-85
2022/12/09 01:33:32;;;;;;;21.53;10.50;;;7.80;56.70;;;;;;4948150;28;20982;-86
2022/12/09 01:35:59;;;;;;;18.03;9.83;;;7.90;56.50;;;;;;4909074;29;20442;-85
2022/12/09 01:38:26;;;;;;;18.43;11.50;;;7.80;56.60;;;;;;4932275;29;20451;-85
2022/12/09 01:40:54;;;;;;;19.37;11.63;;;7.80;56.70;;;;;;4932216;29;20447;-85
2022/12/09 01:43:21;;;;;;;24.53;10.60;;;7.80;56.50;;;;;;4918150;29;20565;-85
2022/12/09 01:45:50;;;;;;;20.77;10.23;;;7.90;56.60;;;;;;4893720;29;20490;-84
2022/12/09 01:48:20;;;;;;;15.20;9.67;;;8.00;56.50;;;;;;4917947;29;20808;-86
2022/12/09 01:50:52;;;;;;;17.33;10.40;;;8.00;56.40;;;;;;4892311;29;20462;-85
2022/12/09 01:53:23;;;;;;;17.60;10.13;;;8.00;56.40;;;;;;4948677;28;20474;-86
2022/12/09 01:55:50;;;;;;;17.27;11.70;;;8.10;56.40;;;;;;4930547;28;20553;-85
2022/12/09 01:58:18;;;;;;;21.63;11.90;;;8.00;56.40;;;;;;4908917;29;20451;-86
2022/12/09 02:00:46;;;;;;;22.53;12.93;;;7.90;56.50;;;;;;4923294;29;20991;-86
2022/12/09 02:03:15;;;;;;;23.57;11.10;;;7.70;56.50;;;;;;4940492;28;20536;-85
2022/12/09 02:05:43;;;;;;;20.27;12.50;;;7.70;56.80;;;;;;4914794;29;20462;-85
2022/12/09 02:08:12;;;;;;;15.97;9.53;;;7.60;56.80;;;;;;4895263;29;20880;-85
2022/12/09 02:10:48;;;;;;;22.97;11.20;;;7.20;58.10;;;;;;4919978;29;20501;-85
2022/12/09 02:13:25;;;;;;;16.93;10.20;;;7.00;59.20;;;;;;4886497;29;20474;-86
2022/12/09 02:15:54;;;;;;;17.83;9.57;;;7.10;59.10;;;;;;4885790;29;20477;-86
2022/12/09 02:18:28;;;;;;;21.37;10.27;;;7.30;59.00;;;;;;4931292;28;20590;-84
2022/12/09 02:21:01;;;;;;;15.13;8.53;;;7.40;58.80;;;;;;4914250;29;20554;-86
2022/12/09 02:23:35;;;;;;;17.33;9.20;;;7.60;58.40;;;;;;4909562;29;20486;-85
2022/12/09 02:26:10;;;;;;;17.93;9.90;;;7.70;58.00;;;;;;4920144;29;20457;-86
2022/12/09 02:29:06;;;;;;;16.23;10.10;;;7.80;57.60;;;;;;4939115;28;21002;-85
2022/12/09 02:32:07;;;;;;;14.67;8.97;;;7.80;57.40;;;;;;4945078;28;20560;-85
2022/12/09 02:34:42;;;;;;;20.07;9.27;;;7.70;57.50;;;;;;4931203;29;21018;-85
2022/12/09 02:37:17;;;;;;;19.33;8.60;;;7.70;57.50;;;;;;4932044;28;20458;-85
2022/12/09 02:39:53;;;;;;;17.90;9.47;;;7.80;57.40;;;;;;4892237;29;20978;-84
2022/12/09 02:42:25;;;;;;;19.17;9.33;;;7.80;57.20;;;;;;4900638;29;20534;-83
2022/12/09 02:44:53;;;;;;;16.27;10.17;;;7.80;57.10;;;;;;4912418;29;21001;-85
2022/12/09 02:47:26;;;;;;;21.33;11.17;;;7.70;57.40;;;;;;4936135;28;20551;-86
2022/12/09 02:49:58;;;;;;;17.83;9.57;;;7.70;57.40;;;;;;4930153;28;20534;-84
2022/12/09 02:52:28;;;;;;;17.10;10.37;;;7.60;57.60;;;;;;4922608;28;20486;-85
2022/12/09 02:54:59;;;;;;;33.37;13.53;;;7.70;57.90;;;;;;4886924;29;20510;-85
2022/12/09 02:57:29;;;;;;;20.00;11.13;;;7.80;57.20;;;;;;4934255;28;21023;-86
2022/12/09 02:59:56;;;;;;;19.13;11.00;;;7.80;56.90;;;;;;4892753;29;20490;-86
2022/12/09 03:02:28;;;;;;;18.13;8.80;;;7.80;56.80;;;;;;4925566;29;20474;-86
2022/12/09 03:05:09;;;;;;;24.13;10.33;;;7.70;56.90;;;;;;4890682;29;20498;-85
2022/12/09 03:07:41;;;;;;;14.03;8.60;;;7.80;57.10;;;;;;4892124;29;20461;-85
2022/12/09 03:10:14;;;;;;;10.90;7.43;;;7.80;56.90;;;;;;4931134;28;20467;-85
2022/12/09 03:12:45;;;;;;;15.23;8.70;;;7.80;56.80;;;;;;4917168;29;21007;-84
2022/12/09 03:15:14;;;;;;;17.10;9.97;;;7.80;56.70;;;;;;4924267;29;20454;-85
2022/12/09 03:17:44;;;;;;;19.43;9.87;;;7.90;56.70;;;;;;4917217;29;20839;-85
2022/12/09 03:20:16;;;;;;;16.43;8.93;;;7.80;57.50;;;;;;4898582;29;20455;-85
2022/12/09 03:22:46;;;;;;;17.40;9.23;;;7.70;57.20;;;;;;4905148;29;20478;-86
2022/12/09 03:25:16;;;;;;;15.93;9.13;;;7.80;57.20;;;;;;4948273;28;20461;-85
2022/12/09 03:27:50;;;;;;;14.60;8.90;;;7.70;57.20;;;;;;4907779;29;20450;-85
2022/12/09 03:30:18;;;;;;;20.10;10.70;;;7.60;57.50;;;;;;4924538;29;20461;-86
2022/12/09 03:32:46;;;;;;;17.17;9.93;;;7.60;57.60;;;;;;4930721;28;20462;-85
2022/12/09 03:35:19;;;;;;;14.10;9.03;;;7.70;57.40;;;;;;4917949;29;20470;-85
2022/12/09 03:37:48;;;;;;;22.93;10.70;;;7.80;57.20;;;;;;4916017;29;20478;-84
2022/12/09 03:40:19;;;;;;;20.40;10.23;;;7.80;57.00;;;;;;4933617;28;20457;-86
2022/12/09 03:42:53;;;;;;;19.97;9.07;;;7.80;56.90;;;;;;4910347;28;20480;-86
2022/12/09 03:45:22;;;;;;;21.70;10.67;;;7.80;56.90;;;;;;4897447;29;20451;-86
2022/12/09 03:47:49;;;;;;;17.93;9.60;;;7.70;57.00;;;;;;4920657;29;20959;-86
2022/12/09 03:50:18;;;;;;;15.23;8.90;;;7.70;57.20;;;;;;4944060;28;20548;-85
2022/12/09 03:52:49;;;;;;;19.10;9.87;;;7.70;57.00;;;;;;4910637;29;20963;-85
2022/12/09 03:55:22;;;;;;;21.33;9.10;;;7.70;56.90;;;;;;4915382;29;20478;-86
2022/12/09 03:57:52;;;;;;;14.70;7.93;;;7.60;57.20;;;;;;4934318;29;20447;-85
2022/12/09 04:00:19;;;;;;;21.80;10.47;;;7.60;57.40;;;;;;4953270;28;20461;-86
2022/12/09 04:02:47;;;;;;;19.53;9.50;;;7.60;57.30;;;;;;4935435;29;20467;-86
2022/12/09 04:05:14;;;;;;;17.93;10.80;;;7.70;57.30;;;;;;4918426;29;20434;-86
2022/12/09 04:07:43;;;;;;;17.00;10.23;;;7.70;57.10;;;;;;4894998;29;20469;-86
2022/12/09 04:10:10;;;;;;;19.97;10.80;;;7.60;57.30;;;;;;4905811;29;20446;-86
2022/12/09 04:12:38;;;;;;;15.57;10.13;;;7.60;57.40;;;;;;4903672;29;20499;-84
2022/12/09 04:15:06;;;;;;;20.40;10.60;;;7.70;57.30;;;;;;4902856;29;20529;-86
2022/12/09 04:17:33;;;;;;;19.90;10.13;;;7.70;57.20;;;;;;4935720;29;20446;-86
2022/12/09 04:20:00;;;;;;;21.33;10.13;;;7.70;57.00;;;;;;4906111;29;20578;-86
2022/12/09 04:22:28;;;;;;;12.27;8.37;;;7.70;56.60;;;;;;4916764;29;20479;-86
2022/12/09 04:24:56;;;;;;;19.37;10.57;;;7.70;56.60;;;;;;4910369;29;21012;-85
2022/12/09 04:27:23;;;;;;;13.93;8.10;;;7.70;56.40;;;;;;4895936;29;20466;-86
2022/12/09 04:29:50;;;;;;;19.10;10.70;;;7.70;56.60;;;;;;4945001;28;20965;-84
2022/12/09 04:32:17;;;;;;;14.67;9.17;;;7.60;56.30;;;;;;4932378;29;20478;-86
2022/12/09 04:34:45;;;;;;;19.50;10.57;;;7.60;56.30;;;;;;4920334;29;21051;-84
2022/12/09 04:37:12;;;;;;;22.47;10.00;;;7.60;56.60;;;;;;4949207;28;20484;-86
2022/12/09 04:39:40;;;;;;;21.23;11.33;;;7.60;56.70;;;;;;4900508;29;20471;-83
2022/12/09 04:42:08;;;;;;;21.30;10.83;;;7.50;56.60;;;;;;4946366;28;20471;-85
2022/12/09 04:44:35;;;;;;;31.30;14.90;;;7.50;56.70;;;;;;4950367;28;20542;-86
2022/12/09 04:47:03;;;;;;;24.83;12.30;;;7.50;56.80;;;;;;4900150;29;20459;-86
2022/12/09 04:49:30;;;;;;;25.70;12.87;;;7.40;56.80;;;;;;4948327;28;20454;-86
2022/12/09 04:51:57;;;;;;;22.63;12.87;;;7.40;56.90;;;;;;4902891;29;20459;-85
2022/12/09 04:54:24;;;;;;;23.70;14.50;;;7.50;56.90;;;;;;4940734;28;20481;-86
2022/12/09 04:56:51;;;;;;;24.13;12.40;;;7.40;57.30;;;;;;4905755;29;20463;-83
2022/12/09 04:59:19;;;;;;;21.83;12.47;;;7.30;57.50;;;;;;4932611;28;20549;-86
2022/12/09 05:01:46;;;;;;;24.73;11.57;;;7.40;57.40;;;;;;4898685;29;20455;-84
2022/12/09 05:04:13;;;;;;;22.40;12.20;;;7.30;57.60;;;;;;4930553;28;20456;-84
2022/12/09 05:06:40;;;;;;;25.70;13.97;;;7.00;58.20;;;;;;4934002;28;20652;-83
2022/12/09 05:09:11;;;;;;;24.40;14.00;;;7.00;58.30;;;;;;4934118;28;20446;-85
2022/12/09 05:11:38;;;;;;;22.10;13.07;;;6.90;58.70;;;;;;4932301;28;20451;-86
2022/12/09 05:14:05;;;;;;;28.13;13.20;;;6.80;58.60;;;;;;4918521;29;20471;-85
2022/12/09 05:16:35;;;;;;;25.03;13.40;;;6.50;59.20;;;;;;4918817;29;20443;-86
2022/12/09 05:19:02;;;;;;;31.33;14.03;;;6.30;60.00;;;;;;4915256;29;20484;-86
2022/12/09 05:21:29;;;;;;;23.30;13.17;;;6.20;60.50;;;;;;4935352;29;20450;-85
2022/12/09 05:23:56;;;;;;;24.60;13.10;;;6.20;60.60;;;;;;4891845;29;20569;-85
2022/12/09 05:26:23;;;;;;;29.67;15.00;;;6.50;60.00;;;;;;4901406;29;20478;-85
2022/12/09 05:28:51;;;;;;;30.37;14.40;;;6.80;59.50;;;;;;4893289;29;20470;-86
2022/12/09 05:31:20;;;;;;;25.00;13.83;;;6.80;58.70;;;;;;4904907;29;20953;-86
2022/12/09 05:33:50;;;;;;;31.83;15.37;;;6.60;59.10;;;;;;4932306;28;20478;-85
2022/12/09 05:36:19;;;;;;;25.90;13.97;;;6.70;59.00;;;;;;4902770;29;20966;-86
2022/12/09 05:38:48;;;;;;;28.43;11.23;;;6.70;59.00;;;;;;4932357;29;20904;-86
2022/12/09 05:41:15;;;;;;;23.20;11.33;;;6.10;59.60;;;;;;4900405;29;20967;-85
2022/12/09 05:43:42;;;;;;;30.07;15.47;;;5.70;61.20;;;;;;4918041;28;20542;-86
2022/12/09 05:46:10;;;;;;;28.80;14.27;;;5.80;62.10;;;;;;4933150;28;20454;-85
2022/12/09 05:48:37;;;;;;;26.27;14.43;;;5.70;62.20;;;;;;4917392;28;20482;-86
2022/12/09 05:51:07;;;;;;;23.27;14.40;;;6.10;61.30;;;;;;4945512;28;20478;-86
2022/12/09 05:53:34;;;;;;;25.80;13.43;;;6.30;60.20;;;;;;4907743;29;20482;-86
2022/12/09 05:56:02;;;;;;;22.60;13.50;;;6.30;59.50;;;;;;4913413;29;20451;-85
2022/12/09 05:58:29;;;;;;;25.97;12.50;;;6.10;59.30;;;;;;4916887;29;20983;-85
2022/12/09 06:00:56;;;;;;;26.37;13.10;;;6.10;59.90;;;;;;4891575;29;20474;-85
2022/12/09 06:03:23;;;;;;;23.50;13.13;;;6.10;59.50;;;;;;4903831;29;20478;-85
2022/12/09 06:05:50;;;;;;;26.07;13.00;;;6.40;59.30;;;;;;4916710;29;20481;-86
2022/12/09 06:08:19;;;;;;;30.03;12.07;;;6.60;58.40;;;;;;4922429;29;20886;-86
2022/12/09 06:10:46;;;;;;;22.50;13.53;;;6.60;57.70;;;;;;4922455;29;20454;-85
2022/12/09 06:13:13;;;;;;;23.50;11.27;;;6.50;58.20;;;;;;4946383;28;21105;-85
2022/12/09 06:15:40;;;;;;;25.63;13.20;;;6.50;58.30;;;;;;4902719;29;20709;-86
2022/12/09 06:18:07;;;;;;;27.33;14.00;;;6.60;58.30;;;;;;4913262;29;20549;-85
2022/12/09 06:20:34;;;;;;;26.00;13.77;;;6.70;57.80;;;;;;4905492;29;20831;-86
2022/12/09 06:23:01;;;;;;;30.03;14.27;;;6.60;57.80;;;;;;4904836;29;21026;-86
2022/12/09 06:25:29;;;;;;;25.53;12.00;;;6.70;57.70;;;;;;4933491;28;20500;-84
2022/12/09 06:27:56;;;;;;;28.90;13.27;;;6.70;57.50;;;;;;4915606;29;20449;-85
2022/12/09 06:30:23;;;;;;;26.77;14.30;;;6.80;57.30;;;;;;4915639;29;20470;-86
2022/12/09 06:32:50;;;;;;;26.67;15.10;;;6.90;57.00;;;;;;4915383;29;20999;-85
2022/12/09 06:35:17;;;;;;;27.63;14.97;;;6.90;56.90;;;;;;4932685;29;20580;-86
2022/12/09 06:37:44;;;;;;;25.17;13.30;;;6.90;56.60;;;;;;4906879;29;20448;-87
2022/12/09 06:40:11;;;;;;;27.87;12.63;;;6.90;56.50;;;;;;4932802;28;20462;-85
2022/12/09 06:42:40;;;;;;;27.60;14.80;;;6.90;56.30;;;;;;4932955;28;21476;-85
2022/12/09 06:45:08;;;;;;;30.10;14.20;;;6.90;56.40;;;;;;4936334;28;20908;-86
2022/12/09 06:47:35;;;;;;;29.13;14.17;;;6.90;56.40;;;;;;4902021;29;20473;-86
2022/12/09 06:50:02;;;;;;;30.00;15.30;;;6.90;56.10;;;;;;4917695;29;20470;-85
2022/12/09 06:52:29;;;;;;;25.13;13.93;;;6.70;56.00;;;;;;4890467;29;20474;-85
2022/12/09 06:54:56;;;;;;;26.10;12.43;;;6.50;56.40;;;;;;4887883;29;20478;-86
2022/12/09 06:57:23;;;;;;;31.37;13.90;;;6.40;56.60;;;;;;4930729;29;20453;-86
2022/12/09 06:59:51;;;;;;;26.13;12.60;;;6.20;56.90;;;;;;4887084;29;20462;-85
2022/12/09 07:02:18;;;;;;;31.30;13.00;;;6.20;56.80;;;;;;4928527;28;20474;-86
2022/12/09 07:04:46;;;;;;;28.57;12.60;;;6.20;57.00;;;;;;4922670;29;20541;-85
2022/12/09 07:07:14;;;;;;;32.93;13.30;;;6.30;56.90;;;;;;4905517;29;20545;-86
2022/12/09 07:09:41;;;;;;;22.20;12.07;;;6.30;56.70;;;;;;4909107;29;20525;-85
2022/12/09 07:12:08;;;;;;;23.30;12.20;;;6.40;56.60;;;;;;4916799;29;21108;-85
2022/12/09 07:14:35;;;;;;;25.43;12.90;;;6.50;56.60;;;;;;4904922;29;20482;-84
2022/12/09 07:17:04;;;;;;;29.73;13.70;;;6.10;56.60;;;;;;4933275;28;20458;-85
2022/12/09 07:19:31;;;;;;;34.87;17.37;;;5.90;58.00;;;;;;4943290;28;20468;-86
2022/12/09 07:21:58;;;;;;;43.70;18.63;;;6.00;58.10;;;;;;4894440;29;20550;-85
2022/12/09 07:24:25;;;;;;;42.20;19.03;;;6.10;57.80;;;;;;4905570;29;20467;-86
2022/12/09 07:26:53;;;;;;;37.97;17.90;;;6.30;57.60;;;;;;4896905;29;20459;-85
2022/12/09 07:29:20;;;;;;;30.20;17.27;;;6.40;57.70;;;;;;4902705;29;20489;-86
2022/12/09 07:31:47;;;;;;;30.70;15.63;;;6.40;57.80;;;;;;4907788;29;20462;-85
2022/12/09 07:34:16;;;;;;;33.23;17.93;;;6.40;58.00;;;;;;4922214;29;20597;-86
2022/12/09 07:36:43;;;;;;;33.00;17.37;;;6.30;58.10;;;;;;4935482;28;20851;-85
2022/12/09 07:39:13;;;;;;;36.13;19.00;;;5.90;58.80;;;;;;4917285;29;20545;-85
2022/12/09 07:41:40;;;;;;;59.90;25.67;;;5.90;59.10;;;;;;4911300;29;20497;-86
2022/12/09 07:44:07;;;;;;;30.63;16.80;;;5.90;59.30;;;;;;4936344;28;21176;-86
2022/12/09 07:46:34;;;;;;;41.77;17.30;;;5.80;59.20;;;;;;4934042;28;20897;-86
2022/12/09 07:49:03;;;;;;;37.53;19.37;;;6.00;59.30;;;;;;4903763;29;20458;-85
2022/12/09 07:51:32;;;;;;;44.30;20.83;;;6.20;58.90;;;;;;4905589;29;20456;-85
2022/12/09 07:53:59;;;;;;;34.30;17.73;;;6.20;58.90;;;;;;4918436;29;20477;-85
2022/12/09 07:56:27;;;;;;;45.17;21.33;;;6.30;58.70;;;;;;4927716;29;20457;-85
2022/12/09 07:58:55;;;;;;;41.20;23.17;;;6.20;58.60;;;;;;4902379;29;20462;-84
2022/12/09 08:01:25;;;;;;;35.83;17.07;;;6.20;59.00;;;;;;4936281;28;20487;-85
2022/12/09 08:03:52;;;;;;;42.03;22.37;;;6.20;59.10;;;;;;4903247;29;20475;-83
2022/12/09 08:06:21;;;;;;;44.80;20.80;;;6.30;59.10;;;;;;4951702;28;20553;-85
2022/12/09 08:08:50;;;;;;;37.27;19.50;;;6.30;59.10;;;;;;4908218;29;20673;-86
2022/12/09 08:11:20;;;;;;;50.60;30.87;;;6.50;59.10;;;;;;4919169;29;20812;-86
2022/12/09 08:13:47;;;;;;;46.40;22.07;;;6.40;58.90;;;;;;4926591;29;20481;-85
2022/12/09 08:16:16;;;;;;;49.90;25.47;;;6.50;59.10;;;;;;4917638;29;21336;-86
2022/12/09 08:18:43;;;;;;;56.70;26.20;;;6.60;58.70;;;;;;4916103;29;20466;-86
2022/12/09 08:21:12;;;;;;;33.23;18.93;;;6.30;58.60;;;;;;4893741;29;20462;-86
2022/12/09 08:23:39;;;;;;;45.13;24.10;;;6.40;59.10;;;;;;4919284;29;20620;-85
2022/12/09 08:26:08;;;;;;;52.87;26.10;;;6.30;58.90;;;;;;4887939;29;20457;-85
2022/12/09 08:28:36;;;;;;;46.40;22.93;;;6.00;59.70;;;;;;4918295;29;21045;-86
2022/12/09 08:31:06;;;;;;;46.40;23.37;;;6.00;59.70;;;;;;4916771;29;20455;-86
2022/12/09 08:33:34;;;;;;;44.13;21.80;;;6.20;59.90;;;;;;4901934;29;20499;-86
2022/12/09 08:36:01;;;;;;;43.47;21.60;;;6.40;59.70;;;;;;4893051;29;20569;-86
2022/12/09 08:38:28;;;;;;;49.63;22.60;;;6.40;59.20;;;;;;4910546;29;20466;-86
2022/12/09 08:40:55;;;;;;;39.63;18.60;;;6.50;59.00;;;;;;4899596;29;20533;-86
2022/12/09 08:43:23;;;;;;;41.30;19.53;;;6.50;59.00;;;;;;4905336;29;20634;-86
2022/12/09 08:45:50;;;;;;;43.30;21.00;;;6.60;59.00;;;;;;4889590;29;20619;-86
2022/12/09 08:48:17;;;;;;;48.90;20.87;;;6.70;58.80;;;;;;4903620;29;20467;-86
2022/12/09 08:50:44;;;;;;;46.40;21.83;;;6.60;58.60;;;;;;4934873;29;20506;-86
2022/12/09 08:53:11;;;;;;;36.30;20.80;;;6.50;59.00;;;;;;4915712;29;20465;-86
2022/12/09 08:55:39;;;;;;;44.20;20.80;;;6.70;58.80;;;;;;4909404;29;20488;-86
2022/12/09 08:58:06;;;;;;;54.40;25.80;;;6.60;59.10;;;;;;4919945;29;20485;-86
2022/12/09 09:00:35;;;;;;;49.30;27.40;;;6.60;58.50;;;;;;4901075;29;20454;-85
2022/12/09 09:03:02;;;;;;;51.70;22.90;;;6.60;59.20;;;;;;4908802;29;20479;-85
2022/12/09 09:05:29;;;;;;;54.60;24.17;;;6.80;59.70;;;;;;4941947;28;20525;-85
2022/12/09 09:07:56;;;;;;;56.97;27.30;;;6.90;59.00;;;;;;4915592;29;20458;-84
2022/12/09 09:10:23;;;;;;;46.17;23.10;;;6.90;58.60;;;;;;4926567;29;20459;-85
2022/12/09 09:12:50;;;;;;;52.93;22.27;;;7.00;58.30;;;;;;4915859;28;20485;-86
2022/12/09 09:15:17;;;;;;;42.60;22.10;;;6.80;58.50;;;;;;4941068;28;20473;-86
2022/12/09 09:17:45;;;;;;;41.47;21.33;;;6.80;58.70;;;;;;4914741;29;20462;-86
2022/12/09 09:20:12;;;;;;;46.00;21.67;;;6.70;58.50;;;;;;4931735;29;20462;-86
2022/12/09 09:22:39;;;;;;;48.53;22.33;;;6.80;58.90;;;;;;4922795;28;20482;-86
2022/12/09 09:25:07;;;;;;;45.70;23.97;;;6.80;58.70;;;;;;4886725;29;20536;-85
2022/12/09 09:27:34;;;;;;;33.67;18.67;;;6.60;58.70;;;;;;4915770;29;20447;-85
2022/12/09 09:30:02;;;;;;;38.77;16.57;;;6.60;59.00;;;;;;4900840;29;20458;-86
2022/12/09 09:32:31;;;;;;;35.27;17.10;;;6.50;59.90;;;;;;4904442;29;20483;-86
2022/12/09 09:34:59;;;;;;;34.47;16.20;;;6.70;58.70;;;;;;4927041;28;20477;-84
2022/12/09 09:37:26;;;;;;;33.43;17.77;;;6.80;58.50;;;;;;4898893;29;20455;-86
2022/12/09 09:39:53;;;;;;;26.40;14.20;;;6.70;58.40;;;;;;4915981;29;20462;-86
2022/12/09 09:42:29;;;;;;;29.50;15.73;;;6.60;58.70;;;;;;4928774;28;20462;-86
2022/12/09 09:44:57;;;;;;;37.33;17.90;;;6.50;59.30;;;;;;4912784;29;20546;-83
2022/12/09 09:47:29;;;;;;;33.63;15.27;;;6.40;59.70;;;;;;4933900;28;20577;-86
2022/12/09 09:50:01;;;;;;;32.50;14.73;;;6.50;59.50;;;;;;4891166;29;21051;-84
2022/12/09 09:52:29;;;;;;;37.97;18.67;;;6.60;59.70;;;;;;4935536;28;20536;-85
2022/12/09 09:54:57;;;;;;;36.80;16.60;;;6.80;58.50;;;;;;4927040;29;20478;-86
2022/12/09 09:57:32;;;;;;;31.00;15.97;;;6.80;58.70;;;;;;4897543;29;20956;-86
2022/12/09 10:00:13;;;;;;;24.30;14.10;;;6.70;58.20;;;;;;4917215;29;20450;-86
2022/12/09 10:02:56;;;;;;;27.93;15.63;;;6.70;58.30;;;;;;4920079;29;20480;-85
2022/12/09 10:05:28;;;;;;;23.60;12.50;;;6.90;57.90;;;;;;4923324;29;20798;-85
2022/12/09 10:08:02;;;;;;;29.40;16.03;;;6.60;58.30;;;;;;4949178;28;20459;-85
2022/12/09 10:10:40;;;;;;;31.53;15.90;;;6.60;58.80;;;;;;4935901;29;20451;-84
2022/12/09 10:13:21;;;;;;;31.90;15.37;;;6.80;58.20;;;;;;4923765;29;20470;-86
2022/12/09 10:15:56;;;;;;;28.57;13.30;;;6.80;58.40;;;;;;4933080;29;20534;-85
2022/12/09 10:18:29;;;;;;;29.17;15.47;;;6.60;58.20;;;;;;4917022;29;20553;-84
2022/12/09 10:20:58;;;;;;;36.67;20.77;;;6.70;59.50;;;;;;4933496;28;20460;-85
2022/12/09 10:23:29;;;;;;;27.20;15.70;;;6.70;58.50;;;;;;4916967;29;20462;-85
2022/12/09 10:26:00;;;;;;;27.50;13.43;;;7.00;58.30;;;;;;4917866;29;20461;-85
2022/12/09 10:28:31;;;;;;;26.57;14.30;;;7.10;57.80;;;;;;4917187;29;20466;-86
2022/12/09 10:30:59;;;;;;;29.60;13.90;;;7.30;57.10;;;;;;4891214;29;21177;-84
2022/12/09 10:33:28;;;;;;;23.83;13.80;;;7.20;57.10;;;;;;4893689;29;20479;-85
2022/12/09 10:35:57;;;;;;;23.00;12.20;;;7.20;57.40;;;;;;4918488;29;20512;-85
2022/12/09 10:38:25;;;;;;;28.47;13.30;;;7.10;57.30;;;;;;4932878;28;20454;-83
2022/12/09 10:41:00;;;;;;;24.87;12.97;;;7.20;57.50;;;;;;4945808;28;20465;-85
2022/12/09 10:43:35;;;;;;;26.53;13.50;;;7.40;57.30;;;;;;4918065;29;20496;-86
2022/12/09 10:46:05;;;;;;;27.17;14.20;;;7.50;57.20;;;;;;4886938;29;20451;-86
2022/12/09 10:48:36;;;;;;;19.50;12.77;;;7.50;56.80;;;;;;4913525;29;20454;-86
2022/12/09 10:51:10;;;;;;;26.87;11.93;;;7.30;56.40;;;;;;4930783;28;20522;-86
2022/12/09 10:53:43;;;;;;;21.20;12.37;;;7.40;56.80;;;;;;4918829;29;20479;-87
2022/12/09 10:56:17;;;;;;;24.33;11.73;;;7.40;56.70;;;;;;4899703;29;20478;-85
2022/12/09 10:58:44;;;;;;;26.70;13.20;;;7.40;57.00;;;;;;4938394;28;20917;-86
2022/12/09 11:01:14;;;;;;;30.40;15.17;;;7.30;56.60;;;;;;4934880;28;20748;-86
2022/12/09 11:03:48;;;;;;;16.90;10.87;;;7.10;57.10;;;;;;4921346;29;20618;-86
2022/12/09 11:06:26;;;;;;;23.60;12.67;;;6.80;58.20;;;;;;4929333;29;20453;-87
2022/12/09 11:08:56;;;;;;;24.37;12.03;;;6.90;58.30;;;;;;4931102;29;20454;-87
2022/12/09 11:11:40;;;;;;;23.23;12.83;;;7.10;58.10;;;;;;4915187;29;20542;-86
2022/12/09 11:14:21;;;;;;;20.43;10.80;;;7.10;57.90;;;;;;4905404;29;20927;-86
2022/12/09 11:16:49;;;;;;;26.10;11.47;;;7.20;57.50;;;;;;4934978;28;20999;-85
2022/12/09 11:19:16;;;;;;;24.50;11.13;;;7.40;57.20;;;;;;4931370;29;20466;-86
2022/12/09 11:21:45;;;;;;;23.43;13.60;;;7.50;56.50;;;;;;4892394;29;20447;-86
2022/12/09 11:24:21;;;;;;;21.83;13.70;;;7.40;56.60;;;;;;4914401;29;20465;-86
2022/12/09 11:26:48;;;;;;;19.20;9.97;;;7.40;57.10;;;;;;4930267;29;20963;-86
2022/12/09 11:29:18;;;;;;;23.50;13.27;;;7.40;56.20;;;;;;4901195;29;20831;-85
2022/12/09 11:31:46;;;;;;;20.37;11.33;;;7.30;57.00;;;;;;4939800;28;20462;-86
2022/12/09 11:34:19;;;;;;;19.27;12.57;;;7.50;57.20;;;;;;4930988;29;20546;-85
2022/12/09 11:36:51;;;;;;;19.50;10.03;;;7.60;56.60;;;;;;4921323;29;20478;-86
2022/12/09 11:39:23;;;;;;;19.90;11.93;;;7.80;56.70;;;;;;4931350;29;20454;-86
2022/12/09 11:44:38;;;;;;;23.53;12.00;;;7.50;56.90;;;;;;4915986;29;20457;-86
2022/12/09 11:47:09;;;;;;;19.57;10.23;;;7.40;56.50;;;;;;4913540;29;20449;-86
2022/12/09 11:49:43;;;;;;;16.57;10.47;;;7.70;56.50;;;;;;4945369;28;20461;-86
2022/12/09 11:52:25;;;;;;;19.80;10.97;;;7.90;55.70;;;;;;4916625;29;20470;-86
2022/12/09 11:55:02;;;;;;;18.90;10.87;;;8.10;55.40;;;;;;4931439;29;20509;-86
2022/12/09 11:57:34;;;;;;;19.40;11.47;;;8.20;55.40;;;;;;4948133;28;20529;-86
2022/12/09 12:00:06;;;;;;;17.17;9.70;;;8.10;55.20;;;;;;4930641;28;20546;-84
2022/12/09 12:02:37;;;;;;;16.90;9.60;;;7.60;54.80;;;;;;4934021;29;20837;-86
2022/12/09 12:05:15;;;;;;;15.93;9.67;;;7.30;56.50;;;;;;4936691;28;20462;-86
2022/12/09 12:07:48;;;;;;;17.97;9.70;;;7.50;55.90;;;;;;4934635;28;20454;-86
2022/12/09 12:10:21;;;;;;;17.97;10.13;;;7.30;55.70;;;;;;4925371;29;20827;-86
2022/12/09 12:12:59;;;;;;;15.63;9.43;;;7.50;55.50;;;;;;4949284;28;20489;-86
2022/12/09 12:15:34;;;;;;;15.37;8.57;;;7.20;55.50;;;;;;4917077;29;20450;-86
2022/12/09 12:18:04;;;;;;;20.03;10.47;;;7.30;56.20;;;;;;4919546;29;20553;-83
2022/12/09 12:20:48;;;;;;;18.87;10.50;;;7.10;55.90;;;;;;4943267;28;21034;-86
2022/12/09 12:23:34;;;;;;;18.97;11.17;;;7.00;56.90;;;;;;4932423;28;20486;-85
2022/12/09 12:26:06;;;;;;;17.30;10.90;;;6.90;56.00;;;;;;4909908;29;20465;-86
2022/12/09 12:29:01;;;;;;;16.60;9.70;;;7.00;56.30;;;;;;4902070;29;20465;-86
2022/12/09 12:31:48;;;;;;;15.77;9.57;;;7.20;56.40;;;;;;4935801;29;20465;-86
2022/12/09 12:34:23;;;;;;;59.70;33.00;;;7.30;55.50;;;;;;4930572;28;20454;-86
2022/12/09 12:37:00;;;;;;;35.53;19.43;;;7.20;55.40;;;;;;4935043;29;20579;-83
2022/12/09 12:39:43;;;;;;;17.90;11.73;;;7.30;55.30;;;;;;4915280;29;20464;-86
2022/12/09 12:42:24;;;;;;;25.10;12.57;;;7.40;55.70;;;;;;4949469;28;20798;-86
2022/12/09 12:47:51;;;;;;;19.93;10.17;;;7.30;55.80;;;;;;4910926;28;20453;-86
2022/12/09 12:50:40;;;;;;;16.97;11.00;;;7.20;55.80;;;;;;4919932;29;20450;-85
2022/12/09 12:53:17;;;;;;;18.33;9.70;;;7.30;55.90;;;;;;4932065;29;20467;-84
2022/12/09 12:55:52;;;;;;;21.57;12.00;;;7.50;55.60;;;;;;4935769;28;20483;-85
2022/12/09 12:58:33;;;;;;;21.50;11.33;;;7.40;55.50;;;;;;4933067;28;20462;-86